sensor_id;sensor_type;location;lat;lon;timestamp;pressure;altitude;pressure_sealevel;temperature;humidity
46023;BME280;31756;47.936;16.224;2023-02-05T00:02:05;100376.56;;;-0.74;100.00
46023;BME280;31756;47.936;16.224;2023-02-05T00:04:32;100379.47;;;-0.82;100.00
46023;BME280;31756;47.936;16.224;2023-02-05T00:06:57;100371.91;;;-0.82;100.00
46023;BME280;31756;47.936;16.224;2023-02-05T00:09:23;100386.50;;;-0.77;100.00
46023;BME280;31756;47.936;16.224;2023-02-05T00:11:49;100387.34;;;-0.76;100.00
46023;BME280;31756;47.936;16.224;2023-02-05T00:14:14;100383.34;;;-0.73;100.00
46023;BME280;31756;47.936;16.224;2023-02-05T00:16:40;100378.22;;;-0.74;100.00
46023;BME280;31756;47.936;16.224;2023-02-05T00:19:05;100390.66;;;-0.77;100.00
46023;BME280;31756;47.936;16.224;2023-02-05T00:21:32;100388.91;;;-0.78;100.00
46023;BME280;31756;47.936;16.224;2023-02-05T00:23:57;100392.56;;;-0.73;100.00
46023;BME280;31756;47.936;16.224;2023-02-05T00:26:23;100386.75;;;-0.72;100.00
46023;BME280;31756;47.936;16.224;2023-02-05T00:28:49;100394.19;;;-0.74;100.00
46023;BME280;31756;47.936;16.224;2023-02-05T00:31:16;100392.38;;;-0.76;100.00
46023;BME280;31756;47.936;16.224;2023-02-05T00:33:42;100388.03;;;-0.79;100.00
46023;BME280;31756;47.936;16.224;2023-02-05T00:36:09;100385.53;;;-0.79;100.00
46023;BME280;31756;47.936;16.224;2023-02-05T00:38:36;100387.34;;;-0.76;100.00
46023;BME280;31756;47.936;16.224;2023-02-05T00:41:02;100393.94;;;-0.78;100.00
46023;BME280;31756;47.936;16.224;2023-02-05T00:43:28;100377.09;;;-0.79;100.00
46023;BME280;31756;47.936;16.224;2023-02-05T00:45:54;100391.34;;;-0.80;100.00
46023;BME280;31756;47.936;16.224;2023-02-05T00:48:20;100391.53;;;-0.77;100.00
46023;BME280;31756;47.936;16.224;2023-02-05T00:50:47;100388.16;;;-0.77;100.00
46023;BME280;31756;47.936;16.224;2023-02-05T00:53:12;100394.06;;;-0.77;100.00
46023;BME280;31756;47.936;16.224;2023-02-05T00:55:41;100402.06;;;-0.68;100.00
46023;BME280;31756;47.936;16.224;2023-02-05T00:58:06;100408.34;;;-0.76;100.00
46023;BME280;31756;47.936;16.224;2023-02-05T01:00:32;100406.63;;;-0.77;100.00
46023;BME280;31756;47.936;16.224;2023-02-05T01:02:59;100400.00;;;-0.75;100.00
46023;BME280;31756;47.936;16.224;2023-02-05T01:05:25;100407.66;;;-0.73;100.00
46023;BME280;31756;47.936;16.224;2023-02-05T01:07:50;100413.63;;;-0.71;100.00
46023;BME280;31756;47.936;16.224;2023-02-05T01:10:16;100415.22;;;-0.73;100.00
46023;BME280;31756;47.936;16.224;2023-02-05T01:12:41;100420.25;;;-0.73;100.00
46023;BME280;31756;47.936;16.224;2023-02-05T01:15:07;100425.91;;;-0.77;100.00
46023;BME280;31756;47.936;16.224;2023-02-05T01:17:33;100418.59;;;-0.73;100.00
46023;BME280;31756;47.936;16.224;2023-02-05T01:19:59;100425.53;;;-0.69;100.00
46023;BME280;31756;47.936;16.224;2023-02-05T01:22:25;100425.19;;;-0.75;100.00
46023;BME280;31756;47.936;16.224;2023-02-05T01:24:51;100423.28;;;-0.79;100.00
46023;BME280;31756;47.936;16.224;2023-02-05T01:27:16;100426.78;;;-0.77;100.00
46023;BME280;31756;47.936;16.224;2023-02-05T01:29:42;100420.28;;;-0.88;100.00
46023;BME280;31756;47.936;16.224;2023-02-05T01:32:07;100423.75;;;-0.86;100.00
46023;BME280;31756;47.936;16.224;2023-02-05T01:34:33;100412.56;;;-0.91;100.00
46023;BME280;31756;47.936;16.224;2023-02-05T01:36:58;100411.53;;;-0.95;100.00
46023;BME280;31756;47.936;16.224;2023-02-05T01:39:23;100416.56;;;-0.95;100.00
46023;BME280;31756;47.936;16.224;2023-02-05T01:41:49;100428.78;;;-1.01;100.00
46023;BME280;31756;47.936;16.224;2023-02-05T01:44:16;100422.22;;;-0.99;100.00
46023;BME280;31756;47.936;16.224;2023-02-05T01:46:45;100428.03;;;-1.00;100.00
46023;BME280;31756;47.936;16.224;2023-02-05T01:49:18;100434.59;;;-1.02;100.00
46023;BME280;31756;47.936;16.224;2023-02-05T01:51:46;100423.50;;;-1.05;100.00
46023;BME280;31756;47.936;16.224;2023-02-05T01:54:13;100422.63;;;-1.06;100.00
46023;BME280;31756;47.936;16.224;2023-02-05T01:56:40;100419.34;;;-1.05;100.00
46023;BME280;31756;47.936;16.224;2023-02-05T01:59:14;100414.25;;;-1.06;100.00
46023;BME280;31756;47.936;16.224;2023-02-05T02:01:41;100414.75;;;-1.12;100.00
46023;BME280;31756;47.936;16.224;2023-02-05T02:04:08;100408.09;;;-1.11;100.00
46023;BME280;31756;47.936;16.224;2023-02-05T02:06:35;100418.81;;;-1.14;100.00
46023;BME280;31756;47.936;16.224;2023-02-05T02:09:01;100414.34;;;-1.19;100.00
46023;BME280;31756;47.936;16.224;2023-02-05T02:11:27;100409.47;;;-1.16;100.00
46023;BME280;31756;47.936;16.224;2023-02-05T02:13:55;100403.72;;;-1.14;100.00
46023;BME280;31756;47.936;16.224;2023-02-05T02:16:22;100396.91;;;-1.16;99.10
46023;BME280;31756;47.936;16.224;2023-02-05T02:18:49;100405.06;;;-1.20;97.57
46023;BME280;31756;47.936;16.224;2023-02-05T02:29:19;100416.34;;;-1.28;98.91
46023;BME280;31756;47.936;16.224;2023-02-05T02:31:50;100426.13;;;-1.33;98.80
46023;BME280;31756;47.936;16.224;2023-02-05T02:34:20;100434.63;;;-1.31;97.54
46023;BME280;31756;47.936;16.224;2023-02-05T02:36:51;100432.22;;;-1.29;97.92
46023;BME280;31756;47.936;16.224;2023-02-05T02:39:29;100432.09;;;-1.31;98.85
46023;BME280;31756;47.936;16.224;2023-02-05T02:42:02;100441.84;;;-1.37;98.92
46023;BME280;31756;47.936;16.224;2023-02-05T02:44:38;100437.84;;;-1.33;98.64
46023;BME280;31756;47.936;16.224;2023-02-05T02:47:12;100445.72;;;-1.42;99.35
46023;BME280;31756;47.936;16.224;2023-02-05T02:49:43;100449.72;;;-1.46;100.00
46023;BME280;31756;47.936;16.224;2023-02-05T02:52:10;100443.38;;;-1.54;100.00
46023;BME280;31756;47.936;16.224;2023-02-05T02:54:38;100452.56;;;-1.54;100.00
46023;BME280;31756;47.936;16.224;2023-02-05T02:57:06;100445.19;;;-1.51;100.00
46023;BME280;31756;47.936;16.224;2023-02-05T02:59:34;100449.34;;;-1.52;99.41
46023;BME280;31756;47.936;16.224;2023-02-05T03:02:01;100445.63;;;-1.58;99.62
46023;BME280;31756;47.936;16.224;2023-02-05T03:06:55;100438.59;;;-1.64;100.00
46023;BME280;31756;47.936;16.224;2023-02-05T03:09:24;100456.78;;;-1.68;100.00
46023;BME280;31756;47.936;16.224;2023-02-05T03:11:54;100440.50;;;-1.74;99.58
46023;BME280;31756;47.936;16.224;2023-02-05T03:14:22;100464.56;;;-1.78;100.00
46023;BME280;31756;47.936;16.224;2023-02-05T03:16:48;100455.81;;;-1.85;100.00
46023;BME280;31756;47.936;16.224;2023-02-05T03:19:15;100452.41;;;-1.85;100.00
46023;BME280;31756;47.936;16.224;2023-02-05T03:21:41;100461.00;;;-1.81;100.00
46023;BME280;31756;47.936;16.224;2023-02-05T03:24:08;100464.13;;;-1.86;100.00
46023;BME280;31756;47.936;16.224;2023-02-05T03:26:34;100463.19;;;-1.88;100.00
46023;BME280;31756;47.936;16.224;2023-02-05T03:29:25;100459.63;;;-1.91;100.00
46023;BME280;31756;47.936;16.224;2023-02-05T03:44:57;100468.84;;;-2.05;100.00
46023;BME280;31756;47.936;16.224;2023-02-05T03:47:37;100468.91;;;-2.03;100.00
46023;BME280;31756;47.936;16.224;2023-02-05T03:50:10;100471.72;;;-2.12;100.00
46023;BME280;31756;47.936;16.224;2023-02-05T03:52:39;100475.72;;;-2.15;100.00
46023;BME280;31756;47.936;16.224;2023-02-05T03:55:12;100470.47;;;-2.05;100.00
46023;BME280;31756;47.936;16.224;2023-02-05T03:57:51;100471.06;;;-2.09;100.00
46023;BME280;31756;47.936;16.224;2023-02-05T04:00:20;100473.31;;;-2.14;100.00
46023;BME280;31756;47.936;16.224;2023-02-05T04:02:50;100475.38;;;-1.51;100.00
46023;BME280;31756;47.936;16.224;2023-02-05T04:05:19;100485.81;;;-1.45;100.00
46023;BME280;31756;47.936;16.224;2023-02-05T04:07:50;100486.97;;;-1.11;100.00
46023;BME280;31756;47.936;16.224;2023-02-05T04:10:18;100495.19;;;-1.28;100.00
46023;BME280;31756;47.936;16.224;2023-02-05T04:12:45;100492.13;;;-0.64;100.00
46023;BME280;31756;47.936;16.224;2023-02-05T04:15:10;100490.94;;;-1.00;99.70
46023;BME280;31756;47.936;16.224;2023-02-05T04:17:40;100478.44;;;-1.13;100.00
46023;BME280;31756;47.936;16.224;2023-02-05T04:20:06;100480.97;;;-0.98;99.14
46023;BME280;31756;47.936;16.224;2023-02-05T04:22:32;100473.69;;;-0.94;99.39
46023;BME280;31756;47.936;16.224;2023-02-05T04:24:58;100463.72;;;-1.07;97.62
46023;BME280;31756;47.936;16.224;2023-02-05T04:27:23;100471.34;;;-1.20;97.55
46023;BME280;31756;47.936;16.224;2023-02-05T04:29:50;100463.78;;;-1.05;98.76
46023;BME280;31756;47.936;16.224;2023-02-05T04:32:15;100478.72;;;-1.08;94.29
46023;BME280;31756;47.936;16.224;2023-02-05T04:34:41;100459.69;;;-1.18;94.67
46023;BME280;31756;47.936;16.224;2023-02-05T04:37:09;100494.16;;;-1.17;93.19
46023;BME280;31756;47.936;16.224;2023-02-05T04:39:34;100479.31;;;-1.42;94.87
46023;BME280;31756;47.936;16.224;2023-02-05T04:42:00;100482.09;;;-1.08;97.86
46023;BME280;31756;47.936;16.224;2023-02-05T04:44:26;100483.81;;;-1.36;96.95
46023;BME280;31756;47.936;16.224;2023-02-05T04:46:52;100482.78;;;-1.10;99.22
46023;BME280;31756;47.936;16.224;2023-02-05T04:49:17;100485.69;;;-1.61;96.65
46023;BME280;31756;47.936;16.224;2023-02-05T04:51:42;100479.97;;;-1.59;98.73
46023;BME280;31756;47.936;16.224;2023-02-05T04:54:08;100464.88;;;-1.87;98.21
46023;BME280;31756;47.936;16.224;2023-02-05T04:56:33;100467.41;;;-1.87;98.19
46023;BME280;31756;47.936;16.224;2023-02-05T04:58:59;100457.22;;;-2.03;99.86
46023;BME280;31756;47.936;16.224;2023-02-05T05:01:24;100457.03;;;-2.34;99.96
46023;BME280;31756;47.936;16.224;2023-02-05T05:03:50;100458.28;;;-2.40;100.00
46023;BME280;31756;47.936;16.224;2023-02-05T05:06:16;100454.44;;;-2.48;100.00
46023;BME280;31756;47.936;16.224;2023-02-05T05:08:42;100447.03;;;-2.60;100.00
46023;BME280;31756;47.936;16.224;2023-02-05T05:11:08;100443.47;;;-2.63;100.00
46023;BME280;31756;47.936;16.224;2023-02-05T05:13:34;100446.34;;;-2.70;100.00
46023;BME280;31756;47.936;16.224;2023-02-05T05:16:01;100449.84;;;-2.68;100.00
46023;BME280;31756;47.936;16.224;2023-02-05T05:18:26;100460.47;;;-2.72;100.00
46023;BME280;31756;47.936;16.224;2023-02-05T05:20:52;100458.81;;;-2.72;100.00
46023;BME280;31756;47.936;16.224;2023-02-05T05:23:17;100468.63;;;-2.75;100.00
46023;BME280;31756;47.936;16.224;2023-02-05T05:25:43;100466.44;;;-2.70;100.00
46023;BME280;31756;47.936;16.224;2023-02-05T05:28:09;100458.25;;;-2.68;100.00
46023;BME280;31756;47.936;16.224;2023-02-05T05:30:42;100467.00;;;-2.74;100.00
46023;BME280;31756;47.936;16.224;2023-02-05T05:33:08;100463.56;;;-2.77;100.00
46023;BME280;31756;47.936;16.224;2023-02-05T05:35:33;100483.41;;;-2.80;100.00
46023;BME280;31756;47.936;16.224;2023-02-05T05:37:59;100484.56;;;-2.74;100.00
46023;BME280;31756;47.936;16.224;2023-02-05T05:40:25;100480.06;;;-2.80;100.00
46023;BME280;31756;47.936;16.224;2023-02-05T05:43:14;100482.75;;;-2.77;100.00
46023;BME280;31756;47.936;16.224;2023-02-05T05:46:01;100476.16;;;-2.75;100.00
46023;BME280;31756;47.936;16.224;2023-02-05T05:48:27;100488.72;;;-2.75;100.00
46023;BME280;31756;47.936;16.224;2023-02-05T05:50:53;100485.44;;;-2.74;100.00
46023;BME280;31756;47.936;16.224;2023-02-05T05:53:18;100496.81;;;-2.79;100.00
46023;BME280;31756;47.936;16.224;2023-02-05T05:55:44;100490.09;;;-2.80;100.00
46023;BME280;31756;47.936;16.224;2023-02-05T05:58:09;100494.63;;;-2.74;100.00
46023;BME280;31756;47.936;16.224;2023-02-05T06:00:35;100494.78;;;-2.71;100.00
46023;BME280;31756;47.936;16.224;2023-02-05T06:03:01;100504.00;;;-2.72;100.00
46023;BME280;31756;47.936;16.224;2023-02-05T06:05:27;100503.78;;;-2.75;100.00
46023;BME280;31756;47.936;16.224;2023-02-05T06:07:52;100509.47;;;-2.78;100.00
46023;BME280;31756;47.936;16.224;2023-02-05T06:10:18;100506.88;;;-2.79;100.00
46023;BME280;31756;47.936;16.224;2023-02-05T06:12:43;100500.97;;;-2.80;100.00
46023;BME280;31756;47.936;16.224;2023-02-05T06:15:09;100501.84;;;-2.79;100.00
46023;BME280;31756;47.936;16.224;2023-02-05T06:17:34;100509.47;;;-2.78;100.00
46023;BME280;31756;47.936;16.224;2023-02-05T06:20:00;100501.56;;;-2.84;100.00
46023;BME280;31756;47.936;16.224;2023-02-05T06:22:25;100503.41;;;-2.81;100.00
46023;BME280;31756;47.936;16.224;2023-02-05T06:24:50;100514.09;;;-2.84;100.00
46023;BME280;31756;47.936;16.224;2023-02-05T06:27:16;100526.00;;;-2.81;100.00
46023;BME280;31756;47.936;16.224;2023-02-05T06:29:42;100522.22;;;-2.74;100.00
46023;BME280;31756;47.936;16.224;2023-02-05T06:32:07;100515.56;;;-2.74;100.00
46023;BME280;31756;47.936;16.224;2023-02-05T06:34:33;100531.50;;;-2.73;100.00
46023;BME280;31756;47.936;16.224;2023-02-05T06:36:58;100524.06;;;-2.72;100.00
46023;BME280;31756;47.936;16.224;2023-02-05T06:39:23;100535.53;;;-2.76;100.00
46023;BME280;31756;47.936;16.224;2023-02-05T06:41:49;100522.22;;;-2.74;100.00
46023;BME280;31756;47.936;16.224;2023-02-05T06:44:14;100524.91;;;-2.71;100.00
46023;BME280;31756;47.936;16.224;2023-02-05T06:46:40;100524.25;;;-2.69;100.00
46023;BME280;31756;47.936;16.224;2023-02-05T06:49:05;100525.91;;;-2.69;100.00
46023;BME280;31756;47.936;16.224;2023-02-05T06:51:31;100532.16;;;-2.63;100.00
46023;BME280;31756;47.936;16.224;2023-02-05T06:53:56;100527.44;;;-2.58;100.00
46023;BME280;31756;47.936;16.224;2023-02-05T06:56:22;100535.66;;;-2.61;100.00
46023;BME280;31756;47.936;16.224;2023-02-05T06:58:48;100536.53;;;-2.60;100.00
46023;BME280;31756;47.936;16.224;2023-02-05T07:01:14;100543.66;;;-2.53;100.00
46023;BME280;31756;47.936;16.224;2023-02-05T07:03:39;100537.19;;;-2.37;100.00
46023;BME280;31756;47.936;16.224;2023-02-05T07:06:05;100535.44;;;-2.38;99.82
46023;BME280;31756;47.936;16.224;2023-02-05T07:08:31;100538.16;;;-2.35;99.30
46023;BME280;31756;47.936;16.224;2023-02-05T07:10:57;100540.28;;;-2.41;100.00
46023;BME280;31756;47.936;16.224;2023-02-05T07:13:22;100534.78;;;-2.35;100.00
46023;BME280;31756;47.936;16.224;2023-02-05T07:15:47;100537.00;;;-2.26;100.00
46023;BME280;31756;47.936;16.224;2023-02-05T07:18:13;100540.75;;;-2.20;100.00
46023;BME280;31756;47.936;16.224;2023-02-05T07:20:39;100534.19;;;-2.18;100.00
46023;BME280;31756;47.936;16.224;2023-02-05T07:23:04;100537.84;;;-2.13;99.50
46023;BME280;31756;47.936;16.224;2023-02-05T07:25:30;100539.84;;;-2.07;98.46
46023;BME280;31756;47.936;16.224;2023-02-05T07:28:01;100537.44;;;-2.06;98.65
46023;BME280;31756;47.936;16.224;2023-02-05T07:30:27;100534.16;;;-2.05;100.00
46023;BME280;31756;47.936;16.224;2023-02-05T07:32:52;100540.25;;;-2.01;99.21
46023;BME280;31756;47.936;16.224;2023-02-05T07:35:18;100542.28;;;-1.96;99.13
46023;BME280;31756;47.936;16.224;2023-02-05T07:37:43;100539.53;;;-1.99;99.11
46023;BME280;31756;47.936;16.224;2023-02-05T07:40:09;100542.34;;;-1.94;99.54
46023;BME280;31756;47.936;16.224;2023-02-05T07:42:34;100538.34;;;-1.77;99.45
46023;BME280;31756;47.936;16.224;2023-02-05T07:45:01;100543.28;;;-1.79;98.81
46023;BME280;31756;47.936;16.224;2023-02-05T07:47:26;100547.34;;;-1.81;98.87
46023;BME280;31756;47.936;16.224;2023-02-05T07:49:52;100546.25;;;-1.71;99.11
46023;BME280;31756;47.936;16.224;2023-02-05T07:52:17;100546.34;;;-1.70;97.93
46023;BME280;31756;47.936;16.224;2023-02-05T07:54:43;100557.81;;;-1.60;98.96
46023;BME280;31756;47.936;16.224;2023-02-05T07:57:08;100553.59;;;-1.61;97.82
46023;BME280;31756;47.936;16.224;2023-02-05T07:59:34;100548.41;;;-1.50;97.94
46023;BME280;31756;47.936;16.224;2023-02-05T08:02:00;100548.13;;;-1.54;96.92
46023;BME280;31756;47.936;16.224;2023-02-05T08:04:25;100550.91;;;-1.50;95.18
46023;BME280;31756;47.936;16.224;2023-02-05T08:06:50;100564.44;;;-1.48;93.61
46023;BME280;31756;47.936;16.224;2023-02-05T08:09:16;100563.84;;;-1.44;93.79
46023;BME280;31756;47.936;16.224;2023-02-05T08:11:41;100567.94;;;-1.31;91.83
46023;BME280;31756;47.936;16.224;2023-02-05T08:14:08;100573.94;;;-1.29;91.13
46023;BME280;31756;47.936;16.224;2023-02-05T08:16:33;100569.09;;;-1.26;89.07
46023;BME280;31756;47.936;16.224;2023-02-05T08:18:59;100562.53;;;-1.24;89.71
46023;BME280;31756;47.936;16.224;2023-02-05T08:21:25;100568.09;;;-1.15;89.12
46023;BME280;31756;47.936;16.224;2023-02-05T08:23:50;100557.09;;;-1.02;87.49
46023;BME280;31756;47.936;16.224;2023-02-05T08:26:16;100558.38;;;-1.09;85.67
46023;BME280;31756;47.936;16.224;2023-02-05T08:28:41;100545.34;;;-1.02;84.88
46023;BME280;31756;47.936;16.224;2023-02-05T08:31:14;100558.56;;;-0.91;84.33
46023;BME280;31756;47.936;16.224;2023-02-05T08:33:41;100564.19;;;-0.95;83.32
46023;BME280;31756;47.936;16.224;2023-02-05T08:36:06;100555.78;;;-0.96;83.41
46023;BME280;31756;47.936;16.224;2023-02-05T08:38:32;100548.03;;;-0.84;81.49
46023;BME280;31756;47.936;16.224;2023-02-05T08:41:02;100553.59;;;-0.75;81.71
46023;BME280;31756;47.936;16.224;2023-02-05T08:43:27;100545.59;;;-0.68;82.98
46023;BME280;31756;47.936;16.224;2023-02-05T08:45:52;100558.22;;;-0.82;79.08
46023;BME280;31756;47.936;16.224;2023-02-05T08:48:18;100543.09;;;-0.82;79.88
46023;BME280;31756;47.936;16.224;2023-02-05T08:50:44;100562.66;;;-0.64;79.44
46023;BME280;31756;47.936;16.224;2023-02-05T08:53:09;100563.84;;;-0.72;78.70
46023;BME280;31756;47.936;16.224;2023-02-05T08:55:35;100558.91;;;-0.56;79.04
46023;BME280;31756;47.936;16.224;2023-02-05T08:58:00;100554.03;;;-0.67;76.54
46023;BME280;31756;47.936;16.224;2023-02-05T09:00:25;100560.97;;;-0.49;78.83
46023;BME280;31756;47.936;16.224;2023-02-05T09:02:51;100549.91;;;-0.21;80.76
46023;BME280;31756;47.936;16.224;2023-02-05T09:05:20;100552.97;;;0.04;80.57
46023;BME280;31756;47.936;16.224;2023-02-05T09:07:47;100551.97;;;0.17;76.67
46023;BME280;31756;47.936;16.224;2023-02-05T09:10:13;100554.47;;;0.65;81.47
46023;BME280;31756;47.936;16.224;2023-02-05T09:12:38;100552.34;;;0.73;72.96
46023;BME280;31756;47.936;16.224;2023-02-05T09:15:04;100569.78;;;0.36;72.76
46023;BME280;31756;47.936;16.224;2023-02-05T09:17:30;100556.19;;;0.18;71.98
46023;BME280;31756;47.936;16.224;2023-02-05T09:19:55;100555.75;;;0.73;72.97
46023;BME280;31756;47.936;16.224;2023-02-05T09:22:21;100557.34;;;0.71;68.95
46023;BME280;31756;47.936;16.224;2023-02-05T09:24:46;100543.00;;;-0.09;67.73
46023;BME280;31756;47.936;16.224;2023-02-05T09:27:12;100548.47;;;0.15;69.55
46023;BME280;31756;47.936;16.224;2023-02-05T09:29:39;100543.91;;;0.40;70.71
46023;BME280;31756;47.936;16.224;2023-02-05T09:32:05;100548.03;;;0.54;68.40
46023;BME280;31756;47.936;16.224;2023-02-05T09:34:31;100544.09;;;0.75;65.90
46023;BME280;31756;47.936;16.224;2023-02-05T09:36:56;100540.53;;;0.72;66.02
46023;BME280;31756;47.936;16.224;2023-02-05T09:39:22;100542.13;;;1.04;64.81
46023;BME280;31756;47.936;16.224;2023-02-05T09:41:57;100541.22;;;1.02;65.94
46023;BME280;31756;47.936;16.224;2023-02-05T09:47:08;100537.59;;;1.48;63.66
46023;BME280;31756;47.936;16.224;2023-02-05T09:52:09;100539.84;;;0.42;61.45
46023;BME280;31756;47.936;16.224;2023-02-05T09:54:38;100544.25;;;0.46;63.16
46023;BME280;31756;47.936;16.224;2023-02-05T09:57:07;100551.97;;;0.65;62.58
46023;BME280;31756;47.936;16.224;2023-02-05T09:59:35;100547.47;;;0.76;62.92
46023;BME280;31756;47.936;16.224;2023-02-05T10:02:02;100541.09;;;0.34;62.48
46023;BME280;31756;47.936;16.224;2023-02-05T10:04:42;100525.09;;;0.50;63.83
46023;BME280;31756;47.936;16.224;2023-02-05T10:07:15;100529.19;;;0.31;62.47
46023;BME280;31756;47.936;16.224;2023-02-05T10:27:34;100506.88;;;0.23;62.49
46023;BME280;31756;47.936;16.224;2023-02-05T10:30:13;100498.94;;;-0.16;64.08
46023;BME280;31756;47.936;16.224;2023-02-05T10:33:15;100496.78;;;0.07;64.32
46023;BME280;31756;47.936;16.224;2023-02-05T10:35:41;100488.59;;;0.27;64.86
46023;BME280;31756;47.936;16.224;2023-02-05T10:38:20;100492.81;;;0.60;63.97
46023;BME280;31756;47.936;16.224;2023-02-05T10:40:47;100490.66;;;0.84;61.60
46023;BME280;31756;47.936;16.224;2023-02-05T10:45:40;100478.16;;;1.21;59.15
46023;BME280;31756;47.936;16.224;2023-02-05T10:50:42;100461.28;;;0.86;60.21
46023;BME280;31756;47.936;16.224;2023-02-05T10:53:10;100481.56;;;0.87;60.16
46023;BME280;31756;47.936;16.224;2023-02-05T10:55:36;100462.69;;;1.15;59.59
46023;BME280;31756;47.936;16.224;2023-02-05T10:58:04;100465.59;;;1.22;58.62
46023;BME280;31756;47.936;16.224;2023-02-05T11:00:37;100458.00;;;1.40;58.28
46023;BME280;31756;47.936;16.224;2023-02-05T11:03:03;100450.28;;;1.55;58.93
46023;BME280;31756;47.936;16.224;2023-02-05T11:05:31;100456.78;;;1.32;58.52
46023;BME280;31756;47.936;16.224;2023-02-05T11:08:00;100448.09;;;1.45;58.31
46023;BME280;31756;47.936;16.224;2023-02-05T11:10:26;100449.94;;;1.47;55.57
46023;BME280;31756;47.936;16.224;2023-02-05T11:16:06;100448.84;;;0.39;52.16
46023;BME280;31756;47.936;16.224;2023-02-05T11:18:42;100440.13;;;0.66;54.56
46023;BME280;31756;47.936;16.224;2023-02-05T11:21:08;100434.25;;;0.83;56.23
46023;BME280;31756;47.936;16.224;2023-02-05T11:23:35;100438.78;;;0.90;56.30
46023;BME280;31756;47.936;16.224;2023-02-05T11:28:59;100430.13;;;0.68;58.29
46023;BME280;31756;47.936;16.224;2023-02-05T11:31:42;100429.22;;;0.50;59.72
46023;BME280;31756;47.936;16.224;2023-02-05T11:34:09;100432.56;;;0.66;58.77
46023;BME280;31756;47.936;16.224;2023-02-05T11:36:36;100424.59;;;0.75;57.82
46023;BME280;31756;47.936;16.224;2023-02-05T11:39:03;100422.06;;;0.75;58.29
46023;BME280;31756;47.936;16.224;2023-02-05T11:41:31;100413.13;;;0.99;58.55
46023;BME280;31756;47.936;16.224;2023-02-05T11:44:00;100410.69;;;1.18;56.39
46023;BME280;31756;47.936;16.224;2023-02-05T11:46:28;100406.97;;;1.29;55.32
46023;BME280;31756;47.936;16.224;2023-02-05T11:48:59;100417.22;;;1.32;54.82
46023;BME280;31756;47.936;16.224;2023-02-05T11:53:54;100422.84;;;0.74;55.44
46023;BME280;31756;47.936;16.224;2023-02-05T11:56:21;100426.28;;;0.58;55.22
46023;BME280;31756;47.936;16.224;2023-02-05T11:58:57;100416.06;;;0.73;56.01
46023;BME280;31756;47.936;16.224;2023-02-05T12:01:24;100420.25;;;0.90;57.92
46023;BME280;31756;47.936;16.224;2023-02-05T12:03:58;100417.81;;;1.09;57.07
46023;BME280;31756;47.936;16.224;2023-02-05T12:06:25;100401.81;;;0.91;53.64
46023;BME280;31756;47.936;16.224;2023-02-05T12:08:53;100414.63;;;0.78;52.91
46023;BME280;31756;47.936;16.224;2023-02-05T12:14:26;100400.72;;;0.86;54.41
46023;BME280;31756;47.936;16.224;2023-02-05T12:19:29;100396.31;;;1.00;55.02
46023;BME280;31756;47.936;16.224;2023-02-05T12:22:11;100398.50;;;1.10;54.73
46023;BME280;31756;47.936;16.224;2023-02-05T12:30:05;100383.69;;;1.00;54.82
46023;BME280;31756;47.936;16.224;2023-02-05T12:40:43;100376.06;;;1.53;53.22
46023;BME280;31756;47.936;16.224;2023-02-05T12:53:22;100387.13;;;1.74;51.49
46023;BME280;31756;47.936;16.224;2023-02-05T12:56:14;100383.94;;;1.41;52.53
46023;BME280;31756;47.936;16.224;2023-02-05T12:58:53;100379.13;;;1.28;54.33
46023;BME280;31756;47.936;16.224;2023-02-05T13:01:23;100378.78;;;1.20;54.81
46023;BME280;31756;47.936;16.224;2023-02-05T13:03:56;100381.28;;;0.85;55.72
46023;BME280;31756;47.936;16.224;2023-02-05T13:08:55;100381.38;;;0.69;58.18
46023;BME280;31756;47.936;16.224;2023-02-05T13:11:30;100379.22;;;0.76;60.77
46023;BME280;31756;47.936;16.224;2023-02-05T13:14:11;100379.59;;;0.84;60.08
46023;BME280;31756;47.936;16.224;2023-02-05T13:16:44;100384.03;;;0.89;59.09
46023;BME280;31756;47.936;16.224;2023-02-05T13:21:54;100379.50;;;0.82;59.33
46023;BME280;31756;47.936;16.224;2023-02-05T13:24:48;100390.81;;;0.90;58.09
46023;BME280;31756;47.936;16.224;2023-02-05T13:27:37;100380.09;;;0.95;58.00
46023;BME280;31756;47.936;16.224;2023-02-05T13:30:42;100385.91;;;0.93;58.34
46023;BME280;31756;47.936;16.224;2023-02-05T13:33:08;100390.25;;;1.14;58.69
46023;BME280;31756;47.936;16.224;2023-02-05T13:35:49;100391.41;;;1.20;57.94
46023;BME280;31756;47.936;16.224;2023-02-05T13:43:33;100395.66;;;1.04;60.27
46023;BME280;31756;47.936;16.224;2023-02-05T13:59:36;100404.84;;;1.02;59.89
46023;BME280;31756;47.936;16.224;2023-02-05T14:02:03;100408.81;;;1.14;61.09
46023;BME280;31756;47.936;16.224;2023-02-05T14:04:44;100414.19;;;1.76;68.41
46023;BME280;31756;47.936;16.224;2023-02-05T14:08:00;100405.41;;;1.88;64.40
46023;BME280;31756;47.936;16.224;2023-02-05T14:10:06;100397.69;;;1.84;61.44
46023;BME280;31756;47.936;16.224;2023-02-05T14:12:44;100402.03;;;2.06;62.23
46023;BME280;31756;47.936;16.224;2023-02-05T14:22:49;100391.41;;;1.03;57.54
46023;BME280;31756;47.936;16.224;2023-02-05T14:28:03;100383.69;;;1.54;56.95
46023;BME280;31756;47.936;16.224;2023-02-05T14:32:57;100387.56;;;2.04;55.91
46023;BME280;31756;47.936;16.224;2023-02-05T14:35:30;100384.22;;;1.47;53.58
46023;BME280;31756;47.936;16.224;2023-02-05T14:37:58;100394.19;;;0.56;57.68
46023;BME280;31756;47.936;16.224;2023-02-05T14:42:52;100393.41;;;1.27;65.00
46023;BME280;31756;47.936;16.224;2023-02-05T14:45:19;100393.78;;;1.35;63.33
46023;BME280;31756;47.936;16.224;2023-02-05T14:47:46;100384.47;;;1.53;65.17
46023;BME280;31756;47.936;16.224;2023-02-05T14:50:19;100391.16;;;1.33;65.39
46023;BME280;31756;47.936;16.224;2023-02-05T14:52:48;100396.66;;;1.62;63.94